Time;durP1;ratioP1;P1;durP2;ratioP2;P2;SDS_P1;SDS_P2;PMS_P1;PMS_P2;Temp;Humidity;BMP_temperature;BMP_pressure;BME280_temperature;BME280_humidity;BME280_pressure;Samples;Min_cycle;Max_cycle;Signal;HPM_P1;HPM_P2
2023/10/18 00:03:33;;;;;;;16.40;8.80;;;;;;;5.70;95.86;100517.47;668210;1263;138971;-81
2023/10/18 00:18:36;;;;;;;23.20;9.00;;;;;;;5.72;95.00;100509.69;668248;1265;138913;-81
2023/10/18 00:33:40;;;;;;;21.40;8.90;;;;;;;5.79;95.36;100500.72;669330;1264;139963;-81
2023/10/18 00:48:44;;;;;;;13.60;7.80;;;;;;;5.99;94.63;100491.85;668102;1262;138894;-81
2023/10/18 01:03:49;;;;;;;20.20;9.80;;;;;;;5.93;94.12;100478.99;667842;1265;139091;-79
2023/10/18 01:18:55;;;;;;;18.40;8.70;;;;;;;6.03;93.88;100460.69;672385;1265;140185;-79
2023/10/18 01:34:02;;;;;;;18.90;10.40;;;;;;;6.12;93.56;100449.45;669727;1265;139629;-79
2023/10/18 01:49:06;;;;;;;29.30;13.10;;;;;;;5.96;93.52;100441.81;671558;1276;139788;-79
2023/10/18 02:04:25;;;;;;;20.70;9.60;;;;;;;5.82;93.62;100446.91;670810;1264;139102;-80
2023/10/18 02:19:46;;;;;;;29.40;13.20;;;;;;;5.72;93.89;100433.52;670613;1264;138943;-80
2023/10/18 02:34:51;;;;;;;20.90;11.40;;;;;;;5.69;94.37;100424.16;674724;1265;139159;-81
2023/10/18 02:49:55;;;;;;;19.80;9.50;;;;;;;5.67;94.34;100428.11;672743;1267;140140;-78
2023/10/18 03:04:59;;;;;;;20.90;10.50;;;;;;;5.54;94.98;100410.23;675001;1262;139290;-80
2023/10/18 03:35:25;;;;;;;20.40;9.00;;;;;;;5.42;95.10;100389.80;669127;1279;138860;-81
2023/10/18 03:50:35;;;;;;;13.60;8.70;;;;;;;5.39;95.70;100370.08;675364;1264;138831;-81
2023/10/18 04:05:43;;;;;;;17.70;8.40;;;;;;;5.37;95.55;100351.81;671386;1266;139599;-80
2023/10/18 04:20:52;;;;;;;14.50;7.20;;;;;;;5.46;95.74;100348.96;674529;1274;140487;-80
2023/10/18 04:35:57;;;;;;;13.80;6.40;;;;;;;5.50;97.65;100339.34;676881;1264;139217;-80
2023/10/18 04:51:06;;;;;;;19.80;8.90;;;;;;;5.79;98.13;100335.36;672652;1262;141031;-80
2023/10/18 05:06:11;;;;;;;15.30;7.60;;;;;;;6.12;97.81;100330.84;674481;1265;140053;-81
2023/10/18 05:21:20;;;;;;;53.70;21.50;;;;;;;6.34;96.87;100313.56;670427;1265;141290;-81
2023/10/18 05:51:38;;;;;;;13.10;6.90;;;;;;;6.48;95.82;100331.36;677505;1265;139895;-79
2023/10/18 06:06:43;;;;;;;12.40;6.60;;;;;;;6.52;95.02;100324.30;668784;1266;139735;-79
2023/10/18 06:21:57;;;;;;;12.80;6.50;;;;;;;6.69;94.51;100322.58;668601;1273;139218;-81
2023/10/18 06:37:01;;;;;;;11.60;6.90;;;;;;;6.85;93.94;100312.63;668056;1266;139637;-80
2023/10/18 06:52:04;;;;;;;25.70;14.40;;;;;;;7.04;93.47;100315.70;667449;1268;139679;-79
2023/10/18 07:07:13;;;;;;;12.30;5.80;;;;;;;7.21;93.04;100294.36;667645;1274;139505;-79
2023/10/18 07:22:21;;;;;;;16.40;7.60;;;;;;;7.64;92.36;100280.20;669463;1264;139402;-81
2023/10/18 07:37:25;;;;;;;14.60;7.60;;;;;;;8.33;89.99;100283.63;668325;1264;140145;-79
2023/10/18 07:52:28;;;;;;;14.80;5.40;;;;;;;8.41;88.79;100279.65;671177;1265;139843;-81
2023/10/18 08:07:32;;;;;;;11.00;5.40;;;;;;;9.23;87.37;100284.69;668682;1261;139237;-80
2023/10/18 08:22:39;;;;;;;38.10;19.50;;;;;;;10.44;80.63;100283.70;667794;1274;139187;-80
2023/10/18 08:37:45;;;;;;;12.20;6.00;;;;;;;10.22;81.60;100281.41;668433;1260;140373;-80
2023/10/18 08:52:48;;;;;;;10.10;4.70;;;;;;;10.25;81.72;100280.44;673971;1267;140146;-81
2023/10/18 09:07:53;;;;;;;13.70;6.20;;;;;;;10.66;81.80;100287.63;667924;1266;139969;-81
2023/10/18 09:23:03;;;;;;;7.50;4.20;;;;;;;11.42;80.27;100294.44;667603;1276;139925;-81
2023/10/18 09:38:08;;;;;;;12.30;5.70;;;;;;;14.12;74.94;100292.97;668586;1277;139616;-79
2023/10/18 09:53:13;;;;;;;9.90;4.60;;;;;;;16.13;66.79;100298.94;667650;1264;139256;-80
2023/10/18 10:08:22;;;;;;;14.60;9.60;;;;;;;15.80;64.98;100302.20;667639;1266;139543;-80
2023/10/18 10:23:26;;;;;;;10.20;5.40;;;;;;;15.04;66.19;100303.19;667704;1260;139335;-80
2023/10/18 10:38:29;;;;;;;14.60;8.10;;;;;;;14.26;67.20;100297.70;667655;1266;138728;-79
2023/10/18 10:53:44;;;;;;;16.20;10.70;;;;;;;15.06;67.85;100285.52;670631;1266;180372;-79
2023/10/18 11:08:52;;;;;;;7.30;3.80;;;;;;;16.21;65.78;100269.45;672266;1264;139835;-80
2023/10/18 11:24:04;;;;;;;10.20;4.40;;;;;;;13.96;69.26;100257.71;669967;1265;139271;-81
2023/10/18 11:54:31;;;;;;;6.00;3.20;;;;;;;13.74;74.02;100248.16;668935;1266;139128;-79
2023/10/18 12:09:42;;;;;;;13.20;4.00;;;;;;;13.47;74.87;100247.29;669135;1265;139187;-80
2023/10/18 12:24:46;;;;;;;8.80;3.20;;;;;;;13.22;75.99;100230.06;668635;1265;139201;-80
2023/10/18 12:39:49;;;;;;;5.00;3.20;;;;;;;13.21;76.53;100217.02;668809;1266;139692;-80
2023/10/18 12:54:53;;;;;;;10.90;4.90;;;;;;;13.30;77.15;100212.41;672070;1260;139379;-81
2023/10/18 13:10:00;;;;;;;4.80;3.30;;;;;;;13.73;77.32;100201.58;677341;1265;139363;-81
2023/10/18 13:25:08;;;;;;;12.20;7.00;;;;;;;14.14;76.19;100189.05;676926;1265;139423;-80
2023/10/18 13:40:21;;;;;;;;;;;;;;;14.16;76.18;100182.17;675599;1263;138572;-81
2023/10/18 13:55:26;;;;;;;34.70;18.60;;;;;;;13.66;76.92;100177.91;678314;1265;125528;-84
2023/10/18 14:10:35;;;;;;;18.60;13.10;;;;;;;13.31;78.09;100166.29;679541;1262;139722;-80
2023/10/18 14:25:39;;;;;;;34.60;16.40;;;;;;;12.77;79.80;100158.96;676063;1264;140563;-80
2023/10/18 14:40:44;;;;;;;26.00;12.00;;;;;;;12.61;81.68;100150.03;675338;1265;139668;-79
2023/10/18 14:56:15;;;;;;;18.20;8.90;;;;;;;13.21;82.30;100139.29;676697;1259;139142;-79
2023/10/18 15:11:21;;;;;;;43.40;22.30;;;;;;;13.30;81.25;100126.83;675622;1259;138760;-79
2023/10/18 15:26:29;;;;;;;43.70;20.40;;;;;;;12.47;81.50;100118.62;674857;1259;139625;-79
2023/10/18 15:41:33;;;;;;;131.20;49.90;;;;;;;11.49;84.11;100115.52;674878;1265;138201;-80
2023/10/18 15:56:36;;;;;;;67.50;37.90;;;;;;;10.83;85.53;100118.16;671765;1260;139577;-79
2023/10/18 16:11:42;;;;;;;219.90;79.50;;;;;;;9.81;87.46;100124.57;670025;1266;139347;-79
2023/10/18 16:26:49;;;;;;;85.00;38.80;;;;;;;9.13;89.66;100136.77;670840;1276;140473;-79
2023/10/18 16:41:53;;;;;;;282.40;91.90;;;;;;;8.87;90.00;100138.05;672037;1264;139311;-79
2023/10/18 16:56:58;;;;;;;266.10;89.10;;;;;;;8.51;90.45;100139.42;670805;1259;138850;-78
2023/10/18 17:12:02;;;;;;;149.50;65.30;;;;;;;8.26;91.39;100151.71;670543;1264;139532;-80
2023/10/18 17:27:07;;;;;;;232.90;90.30;;;;;;;7.99;92.61;100151.63;670016;1265;139244;-80
2023/10/18 17:42:12;;;;;;;253.20;94.70;;;;;;;7.74;93.13;100145.52;671379;1265;139805;-79
2023/10/18 17:57:18;;;;;;;124.10;57.90;;;;;;;7.85;94.57;100146.77;671768;1266;139497;-80
2023/10/18 18:12:21;;;;;;;226.10;91.90;;;;;;;8.07;95.47;100138.08;671256;1264;139185;-81
2023/10/18 18:27:25;;;;;;;168.90;70.40;;;;;;;8.07;95.70;100133.57;670172;1265;139633;-80
2023/10/18 18:42:29;;;;;;;463.70;191.60;;;;;;;7.86;96.39;100133.85;679338;1265;139086;-79
2023/10/18 18:57:33;;;;;;;416.50;173.10;;;;;;;7.96;97.36;100137.18;678488;1265;138340;-80
2023/10/18 19:12:39;;;;;;;131.80;59.50;;;;;;;8.15;98.78;100141.27;672419;1266;139618;-80
2023/10/18 19:27:43;;;;;;;52.50;24.30;;;;;;;8.18;99.13;100130.27;673255;1265;138169;-80
2023/10/18 19:42:46;;;;;;;135.80;55.10;;;;;;;8.20;99.02;100112.89;672612;1265;139094;-81
2023/10/18 19:57:51;;;;;;;482.90;197.90;;;;;;;8.05;98.38;100122.22;671101;1265;140078;-81
2023/10/18 20:12:55;;;;;;;56.20;25.50;;;;;;;7.74;99.04;100110.23;672522;1265;139355;-81
2023/10/18 20:27:59;;;;;;;35.50;16.30;;;;;;;7.41;99.76;100114.16;676565;1265;139499;-80
2023/10/18 20:43:03;;;;;;;51.20;28.10;;;;;;;7.14;100.00;100113.44;674852;1263;139194;-80
2023/10/18 20:58:07;;;;;;;95.10;46.50;;;;;;;6.80;100.00;100108.48;672515;1264;140142;-81
2023/10/18 21:13:12;;;;;;;73.30;32.70;;;;;;;6.43;99.97;100095.08;670840;1265;142705;-80
2023/10/18 21:28:16;;;;;;;77.60;34.70;;;;;;;6.26;100.00;100104.52;669183;1276;139111;-80
2023/10/18 21:43:20;;;;;;;88.70;35.80;;;;;;;6.35;100.00;100099.10;669778;1263;139391;-81
2023/10/18 21:58:24;;;;;;;114.60;39.10;;;;;;;6.35;100.00;100082.64;669262;1263;139626;-80
2023/10/18 22:13:31;;;;;;;44.10;21.20;;;;;;;6.09;99.98;100076.35;669340;1265;139923;-80
2023/10/18 22:31:26;;;;;;;64.90;29.60;;;;;;;5.69;99.91;100070.46;650977;1308;544999;-79
2023/10/18 22:46:32;;;;;;;44.90;21.70;;;;;;;5.46;99.70;100055.42;664216;1289;139122;-79
2023/10/18 23:01:37;;;;;;;98.60;43.30;;;;;;;5.33;99.62;100044.39;663897;1275;138333;-79
2023/10/18 23:47:03;;;;;;;126.30;54.40;;;;;;;4.77;99.33;100006.98;666678;1275;139170;-80
